createdAt,value
2018-12-03T00:00:29.785Z,95.40
2018-12-03T00:01:29.784Z,95.20
2018-12-03T00:02:29.754Z,95.29
2018-12-03T00:03:29.771Z,95.50
2018-12-03T00:04:29.720Z,95.46
2018-12-03T00:05:29.724Z,95.15
2018-12-03T00:06:29.706Z,95.25
2018-12-03T00:07:29.716Z,94.64
2018-12-03T00:08:32.420Z,94.84
2018-12-03T00:09:29.689Z,94.64
2018-12-03T00:10:30.426Z,94.84
2018-12-03T00:11:29.653Z,94.54
2018-12-03T00:12:29.651Z,94.33
2018-12-03T00:13:30.410Z,94.90
2018-12-03T00:14:29.604Z,94.39
2018-12-03T00:15:29.628Z,94.02
2018-12-03T00:16:30.419Z,94.43
2018-12-03T00:17:29.571Z,94.64
2018-12-03T00:18:30.431Z,94.49
2018-12-03T00:19:31.017Z,94.02
2018-12-03T00:20:29.578Z,94.59
2018-12-03T00:21:30.457Z,94.70
2018-12-03T00:22:29.549Z,94.64
2018-12-03T00:23:30.525Z,94.70
2018-12-03T00:24:29.518Z,94.70
2018-12-03T00:25:31.499Z,94.23
2018-12-03T00:26:29.474Z,94.39
2018-12-03T00:27:30.427Z,94.54
2018-12-03T00:28:29.479Z,94.43
2018-12-03T00:29:29.478Z,94.84
2018-12-03T00:30:29.480Z,94.95
2018-12-03T00:31:29.437Z,94.59
2018-12-03T00:32:29.453Z,94.54
2018-12-03T00:33:29.926Z,94.43
2018-12-03T00:34:29.919Z,94.74
2018-12-03T00:35:29.386Z,94.74
2018-12-03T00:36:29.405Z,94.43
2018-12-03T00:37:29.377Z,94.74
2018-12-03T00:38:29.356Z,94.80
2018-12-03T00:39:29.385Z,95.00
2018-12-03T00:40:29.342Z,94.90
2018-12-03T00:41:29.333Z,95.00
2018-12-03T00:42:29.930Z,95.10
2018-12-03T00:43:29.920Z,94.70
2018-12-03T00:44:29.280Z,94.74
2018-12-03T00:45:29.995Z,94.84
2018-12-03T00:46:30.927Z,94.74
2018-12-03T00:47:35.981Z,94.64
2018-12-03T00:48:35.962Z,95.00
2018-12-03T00:49:29.817Z,94.95
2018-12-03T00:50:34.319Z,94.90
2018-12-03T00:51:29.228Z,95.21
2018-12-03T00:52:29.201Z,95.31
2018-12-03T00:53:29.203Z,95.10
2018-12-03T00:54:29.178Z,94.90
2018-12-03T00:55:29.755Z,94.80
2018-12-03T00:56:29.180Z,94.70
2018-12-03T00:57:29.149Z,95.41
2018-12-03T00:58:29.141Z,95.51
2018-12-03T00:59:29.132Z,95.31
2018-12-03T01:00:29.765Z,95.10
2018-12-03T01:01:29.107Z,95.51
2018-12-03T01:02:29.124Z,95.51
2018-12-03T01:03:29.086Z,95.82
2018-12-03T01:04:29.069Z,95.62
2018-12-03T01:05:29.064Z,95.51
2018-12-03T01:06:29.055Z,95.51
2018-12-03T01:07:29.753Z,95.51
2018-12-03T01:08:29.053Z,95.51
2018-12-03T01:09:29.021Z,95.41
2018-12-03T01:10:29.014Z,95.72
2018-12-03T01:11:29.003Z,95.10
2018-12-03T01:12:29.007Z,95.41
2018-12-03T01:13:29.000Z,95.10
2018-12-03T01:14:28.966Z,95.47
2018-12-03T01:15:28.948Z,95.37
2018-12-03T01:16:30.809Z,95.51
2018-12-03T01:17:28.962Z,95.47
2018-12-03T01:18:28.919Z,95.31
2018-12-03T01:19:28.935Z,95.00
2018-12-03T01:20:33.777Z,95.51
2018-12-03T01:21:30.809Z,95.26
2018-12-03T01:22:43.824Z,95.67
2018-12-03T01:23:29.818Z,95.41
2018-12-03T01:24:32.782Z,95.41
2018-12-03T01:25:30.588Z,95.06
2018-12-03T01:26:28.832Z,95.51
2018-12-03T01:27:28.837Z,95.57
2018-12-03T01:28:28.825Z,95.47
2018-12-03T01:29:28.798Z,94.85
2018-12-03T01:30:28.789Z,95.51
2018-12-03T01:31:30.300Z,95.47
2018-12-03T01:32:28.812Z,95.62
2018-12-03T01:33:28.781Z,95.57
2018-12-03T01:34:29.296Z,95.37
2018-12-03T01:35:28.746Z,95.17
2018-12-03T01:36:28.756Z,95.47
2018-12-03T01:37:28.717Z,95.47
2018-12-03T01:38:28.713Z,95.47
2018-12-03T01:39:28.697Z,95.47
2018-12-03T01:40:28.701Z,95.17
2018-12-03T01:41:28.691Z,95.06
2018-12-03T01:42:30.331Z,95.17
2018-12-03T01:43:31.846Z,95.32
2018-12-03T01:44:29.317Z,95.02
2018-12-03T01:45:28.637Z,95.26
2018-12-03T01:46:28.633Z,95.17
2018-12-03T01:47:29.283Z,95.47
2018-12-03T01:48:29.276Z,95.43
2018-12-03T01:49:30.290Z,94.20
2018-12-03T01:50:30.315Z,93.65
2018-12-03T01:51:28.587Z,92.47
2018-12-03T01:52:28.564Z,92.58
2018-12-03T01:53:28.533Z,92.13
2018-12-03T01:54:28.549Z,90.75
2018-12-03T01:55:28.553Z,90.08
2018-12-03T01:56:28.513Z,89.43
2018-12-03T01:57:28.501Z,89.39
2018-12-03T01:58:30.277Z,89.08
2018-12-03T01:59:29.278Z,88.78
2018-12-03T02:00:28.485Z,88.67
2018-12-03T02:01:28.458Z,87.85
2018-12-03T02:02:28.460Z,87.41
2018-12-03T02:03:29.265Z,87.20
2018-12-03T02:04:31.297Z,86.80
2018-12-03T02:05:28.416Z,86.29
2018-12-03T02:06:28.390Z,85.94
2018-12-03T02:07:28.397Z,86.45
2018-12-03T02:08:28.367Z,86.35
2018-12-03T02:09:28.375Z,86.35
2018-12-03T02:10:31.303Z,86.45
2018-12-03T02:11:28.374Z,85.53
2018-12-03T02:12:28.357Z,86.35
2018-12-03T02:13:28.327Z,86.04
2018-12-03T02:14:28.319Z,86.29
2018-12-03T02:15:29.272Z,86.29
2018-12-03T02:16:28.286Z,86.80
2018-12-03T02:17:28.276Z,87.35
2018-12-03T02:18:28.267Z,87.85
2018-12-03T02:19:28.279Z,88.26
2018-12-03T02:20:28.779Z,88.67
2018-12-03T02:21:28.234Z,88.92
2018-12-03T02:22:28.279Z,89.23
2018-12-03T02:23:28.218Z,89.43
2018-12-03T02:24:28.203Z,89.88
2018-12-03T02:25:28.232Z,90.29
2018-12-03T02:26:28.852Z,90.49
2018-12-03T02:27:28.200Z,91.41
2018-12-03T02:28:28.161Z,91.05
2018-12-03T02:29:28.166Z,91.20
2018-12-03T02:30:28.825Z,91.66
2018-12-03T02:31:28.162Z,91.46
2018-12-03T02:32:28.770Z,91.56
2018-12-03T02:33:28.112Z,91.86
2018-12-03T02:34:28.095Z,92.27
2018-12-03T02:35:28.084Z,92.27
2018-12-03T02:36:28.069Z,92.42
2018-12-03T02:37:28.097Z,93.24
2018-12-03T02:38:28.054Z,93.29
2018-12-03T02:39:28.054Z,93.19
2018-12-03T02:40:28.036Z,92.78
2018-12-03T02:41:28.018Z,93.13
2018-12-03T02:42:28.014Z,92.83
2018-12-03T02:43:28.023Z,93.03
2018-12-03T02:44:27.981Z,93.13
2018-12-03T02:45:27.985Z,94.06
2018-12-03T02:46:27.956Z,93.85
2018-12-03T02:47:27.961Z,94.06
2018-12-03T02:48:27.995Z,93.85
2018-12-03T02:49:27.938Z,93.85
2018-12-03T02:50:28.778Z,93.85
2018-12-03T02:51:27.906Z,94.46
2018-12-03T02:52:27.904Z,94.56
2018-12-03T02:53:27.901Z,93.95
2018-12-03T02:54:27.937Z,93.74
2018-12-03T02:55:27.912Z,93.74
2018-12-03T02:56:27.852Z,93.74
2018-12-03T02:57:27.838Z,93.74
2018-12-03T02:58:27.831Z,93.74
2018-12-03T02:59:27.829Z,94.46
2018-12-03T03:00:27.830Z,94.15
2018-12-03T03:01:27.827Z,94.15
2018-12-03T03:02:27.795Z,94.26
2018-12-03T03:03:27.775Z,93.95
2018-12-03T03:04:27.779Z,94.36
2018-12-03T03:05:29.272Z,94.26
2018-12-03T03:06:27.757Z,94.56
2018-12-03T03:07:31.284Z,94.71
2018-12-03T03:08:27.722Z,94.51
2018-12-03T03:09:27.706Z,94.97
2018-12-03T03:10:28.324Z,94.77
2018-12-03T03:11:27.689Z,94.56
2018-12-03T03:12:28.283Z,95.07
2018-12-03T03:13:27.674Z,94.97
2018-12-03T03:14:27.675Z,95.43
2018-12-03T03:15:28.329Z,95.38
2018-12-03T03:16:27.644Z,95.48
2018-12-03T03:17:27.636Z,95.28
2018-12-03T03:18:27.647Z,95.28
2018-12-03T03:19:27.602Z,94.87
2018-12-03T03:20:28.277Z,95.18
2018-12-03T03:21:27.577Z,95.18
2018-12-03T03:22:27.568Z,94.97
2018-12-03T03:23:27.572Z,95.28
2018-12-03T03:24:27.571Z,95.07
2018-12-03T03:25:34.711Z,95.48
2018-12-03T03:26:27.533Z,95.59
2018-12-03T03:27:36.359Z,95.38
2018-12-03T03:28:27.502Z,95.69
2018-12-03T03:29:34.708Z,94.87
2018-12-03T03:30:34.638Z,95.28
2018-12-03T03:31:27.468Z,95.48
2018-12-03T03:32:27.975Z,95.07
2018-12-03T03:33:27.442Z,95.28
2018-12-03T03:34:27.446Z,95.48
2018-12-03T03:35:27.443Z,95.18
2018-12-03T03:36:27.411Z,95.18
2018-12-03T03:37:27.425Z,95.38
2018-12-03T03:38:27.395Z,95.73
2018-12-03T03:39:27.392Z,95.89
2018-12-03T03:40:27.392Z,95.69
2018-12-03T03:41:27.375Z,95.79
2018-12-03T03:42:27.359Z,95.48
2018-12-03T03:43:27.336Z,95.48
2018-12-03T03:44:27.323Z,95.79
2018-12-03T03:45:27.336Z,95.79
2018-12-03T03:46:30.162Z,95.69
2018-12-03T03:47:29.334Z,95.89
2018-12-03T03:48:29.579Z,95.89
2018-12-03T03:49:28.576Z,96.20
2018-12-03T03:50:28.857Z,95.89
2018-12-03T03:51:27.253Z,96.30
2018-12-03T03:52:29.023Z,96.41
2018-12-03T03:53:27.240Z,96.20
2018-12-03T03:54:27.277Z,96.30
2018-12-03T03:55:27.208Z,96.41
2018-12-03T03:56:27.194Z,96.34
2018-12-03T03:57:28.199Z,96.45
2018-12-03T03:58:27.188Z,96.41
2018-12-03T03:59:27.159Z,96.20
2018-12-03T04:00:27.172Z,96.20
2018-12-03T04:01:27.141Z,96.20
2018-12-03T04:02:27.129Z,96.30
2018-12-03T04:03:34.978Z,95.89
2018-12-03T04:04:27.137Z,95.48
2018-12-03T04:05:27.150Z,96.41
2018-12-03T04:06:28.074Z,95.89
2018-12-03T04:07:27.116Z,95.53
2018-12-03T04:08:27.077Z,95.69
2018-12-03T04:09:28.048Z,95.59
2018-12-03T04:10:27.045Z,95.48
2018-12-03T04:11:27.035Z,95.79
2018-12-03T04:12:27.047Z,95.38
2018-12-03T04:13:27.023Z,95.59
2018-12-03T04:14:26.998Z,94.87
2018-12-03T04:15:27.006Z,95.18
2018-12-03T04:16:27.484Z,95.18
2018-12-03T04:17:27.476Z,95.48
2018-12-03T04:18:26.963Z,94.97
2018-12-03T04:19:27.506Z,95.69
2018-12-03T04:20:26.931Z,94.97
2018-12-03T04:21:26.921Z,95.38
2018-12-03T04:22:26.907Z,95.07
2018-12-03T04:23:26.903Z,94.97
2018-12-03T04:24:28.503Z,95.28
2018-12-03T04:25:26.896Z,95.38
2018-12-03T04:26:26.866Z,95.18
2018-12-03T04:27:26.862Z,95.18
2018-12-03T04:28:26.838Z,95.18
2018-12-03T04:29:27.440Z,95.07
2018-12-03T04:30:26.828Z,95.28
2018-12-03T04:31:26.845Z,95.28
2018-12-03T04:32:26.824Z,95.18
2018-12-03T04:33:26.811Z,95.38
2018-12-03T04:34:26.806Z,95.48
2018-12-03T04:35:27.486Z,95.48
2018-12-03T04:36:26.763Z,95.48
2018-12-03T04:37:26.776Z,95.48
2018-12-03T04:38:27.518Z,95.48
2018-12-03T04:39:26.730Z,95.38
2018-12-03T04:40:29.536Z,95.38
2018-12-03T04:41:27.523Z,95.69
2018-12-03T04:42:26.697Z,95.73
2018-12-03T04:43:26.715Z,95.48
2018-12-03T04:44:26.681Z,95.43
2018-12-03T04:45:27.483Z,95.48
2018-12-03T04:46:26.648Z,95.69
2018-12-03T04:47:26.663Z,95.32
2018-12-03T04:48:26.637Z,94.97
2018-12-03T04:49:27.475Z,95.59
2018-12-03T04:50:28.004Z,95.18
2018-12-03T04:51:26.611Z,95.28
2018-12-03T04:52:26.590Z,95.28
2018-12-03T04:53:26.614Z,95.22
2018-12-03T04:54:27.483Z,95.69
2018-12-03T04:55:28.526Z,95.53
2018-12-03T04:56:28.995Z,95.18
2018-12-03T04:57:26.551Z,95.07
2018-12-03T04:58:26.536Z,95.07
2018-12-03T04:59:27.492Z,95.07
2018-12-03T05:00:26.521Z,95.38
2018-12-03T05:01:26.518Z,95.18
2018-12-03T05:02:27.007Z,95.12
2018-12-03T05:03:26.972Z,95.38
2018-12-03T05:04:27.030Z,95.38
2018-12-03T05:05:27.463Z,95.43
2018-12-03T05:06:26.447Z,95.07
2018-12-03T05:07:26.833Z,95.38
2018-12-03T05:08:28.978Z,95.22
2018-12-03T05:09:29.050Z,95.18
2018-12-03T05:10:27.396Z,95.28
2018-12-03T05:11:26.379Z,95.28
2018-12-03T05:12:26.391Z,95.38
2018-12-03T05:13:26.386Z,95.38
2018-12-03T05:14:26.352Z,95.69
2018-12-03T05:15:26.336Z,95.13
2018-12-03T05:16:26.345Z,95.07
2018-12-03T05:17:26.312Z,95.18
2018-12-03T05:18:26.343Z,94.56
2018-12-03T05:19:26.290Z,94.82
2018-12-03T05:20:26.280Z,94.82
2018-12-03T05:21:28.020Z,94.77
2018-12-03T05:23:18.141Z,94.21
2018-12-03T05:24:18.158Z,94.46
2018-12-03T05:25:19.369Z,93.80
2018-12-03T05:27:09.968Z,94.56
2018-12-03T05:28:10.687Z,94.87
2018-12-03T05:29:09.962Z,94.46
2018-12-03T05:30:09.949Z,94.97
2018-12-03T05:31:09.929Z,94.67
2018-12-03T05:32:09.921Z,94.56
2018-12-03T05:33:10.684Z,94.15
2018-12-03T05:34:09.910Z,94.97
2018-12-03T05:35:09.923Z,94.67
2018-12-03T05:36:09.890Z,94.67
2018-12-03T05:37:09.889Z,94.21
2018-12-03T05:38:09.859Z,93.95
2018-12-03T05:39:09.855Z,94.52
2018-12-03T05:40:09.830Z,94.42
2018-12-03T05:41:11.729Z,94.73
2018-12-03T05:42:09.853Z,94.67
2018-12-03T05:43:09.799Z,94.36
2018-12-03T05:44:09.806Z,94.77
2018-12-03T05:45:09.803Z,94.36
2018-12-03T05:46:09.757Z,94.32
2018-12-03T05:47:09.755Z,94.32
2018-12-03T05:48:09.740Z,94.21
2018-12-03T05:49:09.734Z,94.11
2018-12-03T05:50:09.720Z,94.82
2018-12-03T05:51:09.727Z,94.11
2018-12-03T05:52:10.687Z,94.42
2018-12-03T05:53:10.694Z,94.21
2018-12-03T05:54:09.684Z,93.91
2018-12-03T05:55:09.675Z,94.73
2018-12-03T05:56:09.651Z,94.42
2018-12-03T05:57:09.660Z,94.42
2018-12-03T05:58:09.656Z,93.80
2018-12-03T05:59:09.627Z,94.62
2018-12-03T06:00:12.249Z,94.21
2018-12-03T06:01:09.609Z,94.42
2018-12-03T06:02:10.592Z,94.01
2018-12-03T06:03:09.595Z,93.91
2018-12-03T06:04:11.233Z,94.11
2018-12-03T06:05:09.556Z,94.42
2018-12-03T06:06:09.557Z,94.62
2018-12-03T06:07:09.529Z,94.82
2018-12-03T06:08:09.520Z,94.21
2018-12-03T06:09:09.529Z,94.62
2018-12-03T06:10:09.509Z,94.62
2018-12-03T06:11:09.502Z,94.93
2018-12-03T06:12:09.474Z,94.82
2018-12-03T06:13:11.241Z,95.23
2018-12-03T06:14:09.477Z,94.73
2018-12-03T06:15:09.459Z,95.03
2018-12-03T06:16:09.429Z,95.34
2018-12-03T06:17:09.428Z,95.54
2018-12-03T06:18:09.410Z,95.64
2018-12-03T06:19:09.409Z,95.75
2018-12-03T06:20:09.419Z,95.44
2018-12-03T06:21:09.389Z,95.13
2018-12-03T06:22:09.365Z,95.34
2018-12-03T06:23:09.367Z,95.13
2018-12-03T06:24:09.356Z,95.13
2018-12-03T06:25:09.329Z,95.13
2018-12-03T06:26:10.218Z,95.44
2018-12-03T06:27:09.310Z,95.13
2018-12-03T06:28:09.301Z,95.13
2018-12-03T06:29:09.284Z,95.64
2018-12-03T06:30:09.277Z,95.13
2018-12-03T06:31:09.301Z,94.93
2018-12-03T06:32:09.305Z,95.48
2018-12-03T06:33:09.243Z,95.64
2018-12-03T06:34:09.240Z,95.44
2018-12-03T06:35:09.221Z,95.44
2018-12-03T06:36:09.246Z,95.85
2018-12-03T06:37:09.203Z,95.64
2018-12-03T06:38:15.155Z,95.75
2018-12-03T06:39:10.181Z,96.05
2018-12-03T06:40:09.187Z,96.26
2018-12-03T06:41:09.159Z,96.46
2018-12-03T06:42:09.206Z,96.26
2018-12-03T06:43:09.134Z,96.56
2018-12-03T06:44:09.166Z,96.00
2018-12-03T06:45:09.144Z,96.71
2018-12-03T06:46:09.106Z,96.61
2018-12-03T06:47:09.684Z,96.67
2018-12-03T06:48:09.083Z,96.77
2018-12-03T06:49:10.741Z,96.67
2018-12-03T06:50:09.089Z,96.05
2018-12-03T06:51:09.697Z,96.20
2018-12-03T06:52:10.027Z,96.10
2018-12-03T06:53:09.032Z,96.30
2018-12-03T06:54:09.041Z,96.36
2018-12-03T06:55:09.013Z,96.36
2018-12-03T06:56:10.764Z,96.10
2018-12-03T06:57:08.992Z,96.10
2018-12-03T06:58:10.735Z,95.95
2018-12-03T06:59:08.968Z,96.67
2018-12-03T07:00:08.972Z,96.61
2018-12-03T07:01:08.944Z,96.81
2018-12-03T07:02:09.938Z,96.46
2018-12-03T07:03:08.917Z,96.67
2018-12-03T07:04:08.908Z,96.56
2018-12-03T07:05:08.904Z,96.67
2018-12-03T07:06:08.901Z,96.67
2018-12-03T07:07:08.896Z,96.05
2018-12-03T07:08:08.865Z,96.36
2018-12-03T07:09:08.860Z,96.41
2018-12-03T07:10:08.859Z,96.15
2018-12-03T07:11:08.846Z,96.00
2018-12-03T07:12:08.844Z,96.26
2018-12-03T07:13:08.818Z,96.46
2018-12-03T07:14:10.686Z,96.51
2018-12-03T07:15:09.685Z,96.56
2018-12-03T07:16:08.793Z,96.41
2018-12-03T07:17:08.762Z,96.41
2018-12-03T07:18:08.786Z,96.10
2018-12-03T07:19:08.778Z,96.15
2018-12-03T07:20:08.759Z,96.67
2018-12-03T07:21:08.730Z,96.51
2018-12-03T07:22:08.720Z,96.71
2018-12-03T07:23:08.717Z,96.61
2018-12-03T07:24:09.243Z,96.77
2018-12-03T07:25:08.694Z,96.56
2018-12-03T07:26:09.212Z,96.77
2018-12-03T07:27:08.671Z,96.56
2018-12-03T07:28:08.667Z,96.61
2018-12-03T07:29:08.638Z,96.92
2018-12-03T07:30:08.642Z,96.77
2018-12-03T07:31:09.210Z,97.08
2018-12-03T07:32:10.203Z,96.67
2018-12-03T07:33:09.191Z,97.28
2018-12-03T07:34:08.589Z,97.17
2018-12-03T07:35:08.576Z,97.17
2018-12-03T07:36:09.249Z,96.77
2018-12-03T07:37:08.558Z,96.67
2018-12-03T07:38:08.547Z,96.56
2018-12-03T07:39:08.526Z,96.56
2018-12-03T07:40:10.201Z,96.67
2018-12-03T07:41:08.513Z,96.77
2018-12-03T07:42:08.510Z,96.46
2018-12-03T07:43:08.519Z,96.21
2018-12-03T07:44:09.240Z,96.36
2018-12-03T07:45:08.459Z,95.80
2018-12-03T07:46:08.450Z,95.95
2018-12-03T07:47:08.456Z,96.05
2018-12-03T07:48:09.757Z,96.11
2018-12-03T07:49:08.422Z,96.15
2018-12-03T07:50:09.159Z,96.51
2018-12-03T07:51:08.418Z,96.15
2018-12-03T07:52:09.210Z,96.15
2018-12-03T07:53:08.385Z,96.15
2018-12-03T07:54:08.381Z,96.51
2018-12-03T07:55:09.197Z,96.11
2018-12-03T07:56:08.362Z,96.21
2018-12-03T07:57:09.225Z,96.42
2018-12-03T07:58:08.356Z,96.72
2018-12-03T07:59:08.322Z,96.42
2018-12-03T08:00:08.293Z,96.11
2018-12-03T08:01:08.306Z,96.21
2018-12-03T08:02:08.288Z,96.21
2018-12-03T08:03:08.271Z,96.42
2018-12-03T08:04:09.212Z,96.62
2018-12-03T08:05:08.259Z,96.11
2018-12-03T08:06:08.263Z,96.31
2018-12-03T08:07:08.222Z,95.80
2018-12-03T08:08:08.239Z,96.11
2018-12-03T08:09:08.201Z,96.21
2018-12-03T08:10:08.202Z,95.90
2018-12-03T08:11:08.188Z,95.29
2018-12-03T08:12:08.201Z,96.11
2018-12-03T08:13:09.204Z,96.31
2018-12-03T08:14:08.700Z,95.29
2018-12-03T08:15:08.137Z,96.01
2018-12-03T08:16:09.119Z,96.11
2018-12-03T08:17:08.138Z,96.31
2018-12-03T08:18:08.112Z,96.21
2018-12-03T08:19:08.101Z,95.80
2018-12-03T08:20:08.088Z,96.31
2018-12-03T08:21:08.065Z,95.85
2018-12-03T08:22:09.753Z,96.42
2018-12-03T08:23:16.330Z,96.11
2018-12-03T08:24:08.030Z,96.15
2018-12-03T08:25:08.028Z,95.80
2018-12-03T08:27:00.975Z,95.50
2018-12-03T08:27:59.921Z,95.70
2018-12-03T08:29:01.624Z,95.39
2018-12-03T08:29:59.877Z,95.29
2018-12-03T08:30:59.866Z,95.60
2018-12-03T08:32:51.757Z,95.15
2018-12-03T08:33:51.751Z,95.19
2018-12-03T08:34:51.728Z,95.29
2018-12-03T08:35:51.727Z,95.39
2018-12-03T08:36:51.712Z,94.98
2018-12-03T08:37:51.719Z,95.19
2018-12-03T08:38:51.694Z,94.98
2018-12-03T08:39:51.672Z,94.98
2018-12-03T08:40:51.672Z,95.09
2018-12-03T08:41:51.662Z,94.78
2018-12-03T08:42:58.856Z,95.04
2018-12-03T08:43:51.659Z,94.98
2018-12-03T08:44:51.635Z,94.78
2018-12-03T08:45:53.515Z,94.43
2018-12-03T08:46:51.602Z,94.48
2018-12-03T08:47:51.594Z,94.33
2018-12-03T08:48:51.603Z,94.64
2018-12-03T08:49:51.572Z,94.12
2018-12-03T08:50:51.575Z,93.92
2018-12-03T08:51:51.570Z,94.43
2018-12-03T08:52:51.538Z,94.33
2018-12-03T08:53:58.700Z,94.23
2018-12-03T08:54:52.534Z,93.71
2018-12-03T08:55:51.540Z,94.12
2018-12-03T08:56:58.626Z,94.53
2018-12-03T08:57:51.515Z,94.43
2018-12-03T08:58:51.468Z,93.57
2018-12-03T08:59:53.112Z,93.67
2018-12-03T09:00:52.066Z,93.47
2018-12-03T09:01:52.101Z,93.67
2018-12-03T09:02:51.439Z,93.77
2018-12-03T09:03:51.469Z,94.08
2018-12-03T09:04:51.424Z,93.92
2018-12-03T09:05:52.044Z,93.92
2018-12-03T09:06:51.385Z,93.88
2018-12-03T09:07:51.390Z,93.06
2018-12-03T09:08:51.383Z,93.47
2018-12-03T09:09:51.392Z,93.37
2018-12-03T09:10:51.357Z,94.38
2018-12-03T09:11:52.055Z,94.33
2018-12-03T09:12:52.337Z,94.38
2018-12-03T09:13:51.329Z,93.77
2018-12-03T09:14:51.373Z,93.37
2018-12-03T09:15:51.293Z,92.96
2018-12-03T09:16:51.293Z,93.06
2018-12-03T09:17:51.280Z,92.65
2018-12-03T09:18:51.283Z,92.71
2018-12-03T09:19:51.255Z,91.65
2018-12-03T09:20:51.254Z,90.83
2018-12-03T09:21:51.241Z,91.09
2018-12-03T09:22:52.089Z,90.28
2018-12-03T09:23:51.225Z,90.18
2018-12-03T09:24:51.207Z,91.14
2018-12-03T09:25:51.197Z,91.14
2018-12-03T09:26:51.221Z,91.14
2018-12-03T09:27:51.169Z,91.24
2018-12-03T09:28:51.268Z,91.44
2018-12-03T09:29:51.151Z,91.35
2018-12-03T09:30:51.142Z,91.55
2018-12-03T09:31:52.051Z,92.10
2018-12-03T09:32:51.123Z,92.91
2018-12-03T09:33:51.112Z,92.41
2018-12-03T09:34:51.092Z,92.91
2018-12-03T09:35:52.070Z,92.81
2018-12-03T09:36:52.589Z,93.16
2018-12-03T09:37:52.048Z,93.47
2018-12-03T09:38:51.110Z,93.16
2018-12-03T09:39:51.038Z,92.71
2018-12-03T09:40:51.592Z,92.91
2018-12-03T09:41:51.021Z,93.02
2018-12-03T09:42:51.053Z,92.50
2018-12-03T09:43:51.024Z,92.41
2018-12-03T09:44:51.057Z,92.30
2018-12-03T09:45:53.938Z,92.81
2018-12-03T09:46:51.551Z,92.50
2018-12-03T09:47:54.261Z,92.10
2018-12-03T09:48:51.084Z,92.30
2018-12-03T09:49:50.938Z,92.16
2018-12-03T09:50:50.959Z,92.30
2018-12-03T09:51:50.940Z,92.50
2018-12-03T09:52:52.593Z,92.36
2018-12-03T09:53:50.907Z,92.26
2018-12-03T09:54:50.904Z,91.55
2018-12-03T09:55:50.882Z,91.44
2018-12-03T09:56:51.547Z,91.55
2018-12-03T09:57:51.562Z,91.65
2018-12-03T09:58:50.847Z,91.75
2018-12-03T09:59:50.838Z,92.57
2018-12-03T10:00:50.821Z,91.96
2018-12-03T10:01:51.545Z,92.41
2018-12-03T10:02:51.548Z,92.20
2018-12-03T10:03:52.597Z,91.75
2018-12-03T10:04:50.783Z,92.50
2018-12-03T10:05:51.771Z,92.00
2018-12-03T10:06:50.759Z,92.30
2018-12-03T10:07:50.749Z,92.61
2018-12-03T10:08:50.731Z,92.41
2018-12-03T10:09:50.720Z,92.71
2018-12-03T10:10:50.712Z,92.30
2018-12-03T10:11:50.705Z,92.41
2018-12-03T10:12:50.690Z,92.41
2018-12-03T10:13:50.701Z,92.30
2018-12-03T10:14:50.684Z,92.81
2018-12-03T10:15:50.659Z,91.89
2018-12-03T10:16:50.677Z,92.50
2018-12-03T10:17:50.655Z,92.30
2018-12-03T10:18:50.671Z,92.20
2018-12-03T10:19:50.640Z,92.16
2018-12-03T10:20:50.599Z,91.96
2018-12-03T10:21:50.617Z,91.49
2018-12-03T10:22:51.555Z,91.44
2018-12-03T10:23:50.566Z,91.65
2018-12-03T10:24:50.590Z,91.14
2018-12-03T10:25:50.552Z,90.79
2018-12-03T10:26:50.540Z,91.20
2018-12-03T10:27:50.533Z,90.73
2018-12-03T10:28:51.060Z,90.73
2018-12-03T10:29:53.110Z,91.20
2018-12-03T10:30:50.557Z,90.69
2018-12-03T10:31:50.502Z,90.53
2018-12-03T10:32:50.518Z,89.77
2018-12-03T10:33:51.057Z,89.83
2018-12-03T10:34:50.467Z,89.22
2018-12-03T10:35:50.522Z,89.12
2018-12-03T10:36:51.438Z,89.01
2018-12-03T10:37:50.427Z,89.22
2018-12-03T10:38:50.411Z,88.71
2018-12-03T10:39:51.398Z,88.92
2018-12-03T10:40:51.062Z,89.12
2018-12-03T10:41:50.378Z,89.16
2018-12-03T10:42:50.372Z,88.61
2018-12-03T10:43:52.115Z,88.75
2018-12-03T10:45:42.196Z,89.77
2018-12-03T10:46:42.210Z,89.77
2018-12-03T10:47:42.185Z,89.47
2018-12-03T10:48:42.209Z,89.67
2018-12-03T10:49:42.906Z,89.63
2018-12-03T10:50:42.167Z,89.57
2018-12-03T10:51:42.972Z,89.97
2018-12-03T10:52:43.955Z,90.08
2018-12-03T10:53:42.951Z,90.08
2018-12-03T10:54:42.107Z,90.18
2018-12-03T10:55:42.110Z,90.08
2018-12-03T10:56:42.091Z,89.67
2018-12-03T10:57:42.962Z,89.77
2018-12-03T10:58:42.055Z,88.61
2018-12-03T10:59:42.071Z,89.01
2018-12-03T11:00:42.040Z,88.26
2018-12-03T11:01:42.027Z,88.26
2018-12-03T11:02:42.049Z,87.04
2018-12-03T11:03:42.005Z,87.14
2018-12-03T11:04:42.926Z,87.14
2018-12-03T11:05:42.005Z,86.63
2018-12-03T11:06:41.971Z,86.29
2018-12-03T11:07:42.000Z,86.29
2018-12-03T11:08:41.952Z,85.53
2018-12-03T11:09:41.999Z,85.03
2018-12-03T11:10:41.938Z,84.28
2018-12-03T11:11:41.949Z,83.42
2018-12-03T11:12:41.913Z,82.92
2018-12-03T11:13:41.900Z,83.32
2018-12-03T11:14:41.906Z,82.06
2018-12-03T11:15:44.418Z,81.62
2018-12-03T11:16:41.905Z,81.21
2018-12-03T11:17:43.420Z,79.85
2018-12-03T11:18:42.436Z,80.26
2018-12-03T11:19:42.432Z,79.75
2018-12-03T11:21:34.751Z,79.72
2018-12-03T11:22:34.706Z,80.02
2018-12-03T11:23:34.715Z,79.72
2018-12-03T11:24:34.713Z,80.06
2018-12-03T11:25:37.398Z,79.75
2018-12-03T11:26:34.659Z,79.96
2018-12-03T11:27:34.675Z,80.16
2018-12-03T11:28:34.676Z,80.57
2018-12-03T11:29:34.633Z,79.99
2018-12-03T11:30:34.617Z,80.26
2018-12-03T11:31:34.633Z,79.65
2018-12-03T11:32:42.743Z,79.35
2018-12-03T11:33:34.588Z,80.36
2018-12-03T11:34:35.436Z,79.65
2018-12-03T11:35:34.578Z,79.69
2018-12-03T11:36:34.551Z,80.50
2018-12-03T11:37:34.539Z,80.64
2018-12-03T11:38:34.542Z,80.64
2018-12-03T11:39:34.533Z,81.05
2018-12-03T11:40:34.526Z,81.15
2018-12-03T11:41:34.512Z,81.05
2018-12-03T11:42:34.571Z,80.64
2018-12-03T11:43:34.476Z,81.01
2018-12-03T11:44:34.481Z,80.30
2018-12-03T11:45:34.493Z,79.79
2018-12-03T11:46:34.502Z,80.71
2018-12-03T11:47:34.451Z,80.84
2018-12-03T11:48:34.423Z,80.33
2018-12-03T11:49:36.974Z,80.74
2018-12-03T11:50:34.425Z,80.74
2018-12-03T11:51:34.393Z,80.84
2018-12-03T11:52:34.391Z,80.91
2018-12-03T11:53:34.928Z,80.74
2018-12-03T11:54:34.917Z,80.80
2018-12-03T11:55:34.367Z,80.84
2018-12-03T11:56:34.363Z,80.50
2018-12-03T11:57:34.328Z,80.50
2018-12-03T11:58:34.344Z,79.79
2018-12-03T11:59:36.020Z,79.65
2018-12-03T12:00:34.307Z,79.45
2018-12-03T12:01:34.294Z,79.25
2018-12-03T12:02:34.317Z,79.90
2018-12-03T12:03:35.285Z,79.59
2018-12-03T12:04:34.268Z,79.32
2018-12-03T12:05:35.969Z,79.52
2018-12-03T12:06:34.239Z,79.72
2018-12-03T12:07:34.935Z,79.63
2018-12-03T12:08:34.218Z,79.12
2018-12-03T12:09:34.207Z,79.69
2018-12-03T12:10:34.190Z,78.67
2018-12-03T12:11:34.205Z,78.53
2018-12-03T12:12:34.175Z,78.23
2018-12-03T12:13:34.191Z,77.83
2018-12-03T12:14:35.146Z,77.42
2018-12-03T12:15:34.139Z,77.72
2018-12-03T12:16:34.124Z,75.86
2018-12-03T12:17:34.121Z,76.17
2018-12-03T12:18:34.131Z,75.86
2018-12-03T12:19:34.145Z,75.05
2018-12-03T12:20:34.122Z,74.71
2018-12-03T12:21:34.068Z,73.60
2018-12-03T12:22:34.925Z,73.60
2018-12-03T12:23:34.074Z,73.05
2018-12-03T12:24:34.942Z,72.75
2018-12-03T12:25:34.026Z,72.58
2018-12-03T12:26:34.022Z,72.65
2018-12-03T12:27:34.019Z,73.05
2018-12-03T12:28:38.243Z,72.68
2018-12-03T12:29:34.975Z,73.09
2018-12-03T12:30:33.969Z,72.78
2018-12-03T12:31:33.960Z,72.89
2018-12-03T12:32:34.011Z,72.68
2018-12-03T12:33:36.494Z,72.68
2018-12-03T12:34:33.936Z,72.21
2018-12-03T12:35:33.955Z,72.01
2018-12-03T12:36:33.902Z,71.60
2018-12-03T12:37:34.434Z,71.91
2018-12-03T12:38:33.888Z,72.11
2018-12-03T12:39:33.888Z,72.31
2018-12-03T12:40:33.863Z,72.11
2018-12-03T12:41:33.871Z,72.21
2018-12-03T12:42:34.881Z,72.21
2018-12-03T12:43:33.868Z,72.11
2018-12-03T12:44:33.816Z,72.11
2018-12-03T12:45:33.819Z,72.31
2018-12-03T12:46:33.816Z,72.45
2018-12-03T12:47:33.797Z,72.78
2018-12-03T12:48:34.481Z,72.96
2018-12-03T12:49:33.797Z,72.89
2018-12-03T12:50:33.751Z,74.31
2018-12-03T12:51:33.761Z,74.21
2018-12-03T12:52:33.751Z,74.04
2018-12-03T12:53:34.481Z,74.04
2018-12-03T12:54:33.708Z,74.44
2018-12-03T12:55:33.705Z,74.14
2018-12-03T12:56:34.439Z,73.83
2018-12-03T12:57:33.700Z,74.24